• pl
  • eng

Awiacja
WIADOMOŚCI
ostatnia aktualizacja: 06.03.2019 14:41
Szanowni Państwo,

uprzejmie informujemy, że z dniem 01.01.2019 roku z obszaru MOLC zostało wyłączone BPM we Wrocławiu. Jego zadania zostały przejęte przez BPM w Krakowie.

Kliknij na pogrubioną czerwoną nazwę, aby odkodować depeszę. 08:01 24.04.2019
  • WIND
  • SIGNIFICANT EURO
  • SIGNIFICANT
  • SIGMET
  • AIRMET
  • TAF FC
  • TAF FT
  • METAR GG30
  • METAR GG00


METAR EPBY 240600Z 12015KT CAVOK 13/01 Q1014 =

METAR EPGD 240600Z 12017KT CAVOK 11/M01 Q1016 =

METAR EPKK 240600Z 10009KT CAVOK 13/06 Q1015 =

METAR EPKT 240600Z 11011KT CAVOK 12/04 Q1014 =

METAR EPLB 240600Z 13011KT CAVOK 10/02 Q1020 =

METAR EPLL 240600Z 11009KT 080V140 CAVOK 11/02 Q1014 =

METAR EPMO 240600Z 12011KT CAVOK 12/00 Q1018 =

METAR EPPO 240600Z 12013KT 9999 BKN039 14/04 Q1011 =

METAR EPRA 240600Z 12012KT CAVOK 12/02 Q1018=

METAR EPRZ 240600Z 10011KT CAVOK 11/04 Q1019 =

METAR EPSC 240600Z 11016KT 9999 SCT043 14/03 Q1009 =

METAR EPSY 240600Z 13011G23KT 090V170 CAVOK 12/M01 Q1019=

METAR EPWA 240600Z 12014KT CAVOK 12/01 Q1018 NOSIG=

METAR EPWR 240600Z 14017KT 9999 FEW035CB BKN040 13/08 Q1011 =

METAR EPZG 240600Z 12008KT 090V150 9999 FEW037 14/07 Q1009 =
 METAR EPSY
Lokalizacja:EPSY
Czas:06:00 UTC
Średni kierunek wiatru:130 °
Średnia prędkość wiatru:11 węzłów
Prędkość wiatru w porywach:23 węzłów
Kierunek wiatru zmienia się od:090 °
Kierunek wiatru zmienia się do:170 °
CAVOK:Widzialność 10 km i więcej, zjawisko: NIL, zachmurzenie: NSC
Temperatura powietrza:12 °C
Temperatura punktu rosy:-1 °C
Ciśnienie QNH:1019 hPa
Awiacja.imgw.pl jest pogodowym serwisem informacyjnym
Instytutu Meteorologii i Gospodarki Wodnej Państwowego Instytutu Badawczego.
Copyright IMGW PIB 2009-2011© Wszelkie prawa zastrzeżone.